createdAt,value
2023-01-17T00:02:18.796Z,98957.56
2023-01-17T00:05:05.275Z,98951.41
2023-01-17T00:07:51.320Z,98945.25
2023-01-17T00:10:24.809Z,98943.38
2023-01-17T00:12:59.901Z,98940.81
2023-01-17T00:15:30.850Z,98950.56
2023-01-17T00:17:58.698Z,98956.69
2023-01-17T00:20:48.477Z,98958.50
2023-01-17T00:23:43.715Z,98960.22
2023-01-17T00:26:21.189Z,98948.13
2023-01-17T00:28:48.953Z,98947.28
2023-01-17T00:31:16.895Z,98957.84
2023-01-17T00:33:43.947Z,98959.03
2023-01-17T00:36:12.113Z,98946.75
2023-01-17T00:38:40.238Z,98943.34
2023-01-17T00:41:13.898Z,98953.63
2023-01-17T00:43:59.874Z,98958.56
2023-01-17T00:46:45.344Z,98964.06
2023-01-17T00:49:31.133Z,98972.94
2023-01-17T00:52:16.790Z,98971.06
2023-01-17T00:55:02.757Z,98958.69
2023-01-17T00:57:48.914Z,98966.63
2023-01-17T01:00:37.546Z,98971.91
2023-01-17T01:03:30.790Z,98981.66
2023-01-17T01:06:16.304Z,98980.81
2023-01-17T01:09:02.071Z,98987.88
2023-01-17T01:11:47.676Z,98972.88
2023-01-17T01:14:33.117Z,98972.00
2023-01-17T01:17:18.782Z,98968.69
2023-01-17T01:20:04.837Z,98971.47
2023-01-17T01:22:50.476Z,98976.00
2023-01-17T01:25:35.897Z,98970.91
2023-01-17T01:28:29.791Z,98962.22
2023-01-17T01:31:19.082Z,98961.06
2023-01-17T01:33:46.101Z,98964.88
2023-01-17T01:36:13.251Z,98965.25
2023-01-17T01:38:40.254Z,98961.75
2023-01-17T01:41:07.285Z,98957.41
2023-01-17T01:43:47.728Z,98960.91
2023-01-17T01:46:35.543Z,98956.66
2023-01-17T01:49:28.355Z,98956.66
2023-01-17T01:52:00.207Z,98957.59
2023-01-17T01:55:00.380Z,98963.94
2023-01-17T01:57:34.902Z,98963.94
2023-01-17T02:00:24.877Z,98965.94
2023-01-17T02:02:57.097Z,98959.78
2023-01-17T02:05:28.715Z,98959.88
2023-01-17T02:08:07.760Z,98946.22
2023-01-17T02:10:44.296Z,98946.47
2023-01-17T02:13:15.827Z,98946.59
2023-01-17T02:16:14.043Z,98948.47
2023-01-17T02:19:20.726Z,98936.09
2023-01-17T02:22:12.793Z,98930.91
2023-01-17T02:25:06.011Z,98929.03
2023-01-17T02:27:52.559Z,98922.88
2023-01-17T02:30:22.142Z,98901.72
2023-01-17T02:33:16.517Z,98894.53
2023-01-17T02:36:22.979Z,98887.44
2023-01-17T02:38:58.116Z,98893.50
2023-01-17T02:41:35.083Z,98897.84
2023-01-17T02:44:03.687Z,98884.63
2023-01-17T02:46:31.445Z,98875.75
2023-01-17T02:49:00.350Z,98870.47
2023-01-17T02:51:52.651Z,98882.81
2023-01-17T02:54:39.824Z,98880.94
2023-01-17T02:57:28.483Z,98871.31
2023-01-17T03:00:28.386Z,98859.88
2023-01-17T03:03:05.858Z,98855.44
2023-01-17T03:05:50.424Z,98872.22
2023-01-17T03:08:17.754Z,98878.47
2023-01-17T03:10:45.989Z,98884.63
2023-01-17T03:13:13.055Z,98895.09
2023-01-17T03:15:41.286Z,98896.69
2023-01-17T03:18:14.722Z,98890.47
2023-01-17T03:20:42.129Z,98890.34
2023-01-17T03:23:09.345Z,98884.13
2023-01-17T03:25:36.740Z,98885.72
2023-01-17T03:28:04.432Z,98875.91
2023-01-17T03:30:31.705Z,98874.94
2023-01-17T03:32:58.727Z,98879.38
2023-01-17T03:35:25.748Z,98878.44
2023-01-17T03:37:52.753Z,98874.94
2023-01-17T03:40:19.889Z,98881.19
2023-01-17T03:42:46.920Z,98889.00
2023-01-17T03:45:14.028Z,98872.22
2023-01-17T03:47:40.914Z,98874.84
2023-01-17T03:50:08.866Z,98859.91
2023-01-17T03:52:35.815Z,98852.72
2023-01-17T03:55:02.854Z,98843.13
2023-01-17T03:57:30.004Z,98837.81
2023-01-17T03:59:57.885Z,98837.19
2023-01-17T04:02:25.968Z,98827.53
2023-01-17T04:04:53.021Z,98821.50
2023-01-17T04:07:20.536Z,98822.63
2023-01-17T04:09:47.503Z,98801.28
2023-01-17T04:12:14.803Z,98800.75
2023-01-17T04:14:41.806Z,98792.56
2023-01-17T04:17:13.276Z,98791.06
2023-01-17T04:19:41.196Z,98799.09
2023-01-17T04:22:08.770Z,98794.75
2023-01-17T04:24:36.065Z,98788.63
2023-01-17T04:27:05.108Z,98789.34
2023-01-17T04:29:32.736Z,98800.78
2023-01-17T04:31:59.694Z,98805.13
2023-01-17T04:34:27.130Z,98802.56
2023-01-17T04:36:54.150Z,98806.06
2023-01-17T04:39:21.134Z,98803.41
2023-01-17T04:41:48.248Z,98799.09
2023-01-17T04:44:16.431Z,98799.09
2023-01-17T04:46:43.375Z,98791.06
2023-01-17T04:49:10.428Z,98769.28
2023-01-17T04:51:37.342Z,98761.63
2023-01-17T04:54:04.455Z,98759.38
2023-01-17T04:56:31.357Z,98764.03
2023-01-17T04:58:58.939Z,98767.63
2023-01-17T05:01:26.678Z,98769.50
2023-01-17T05:03:53.692Z,98766.13
2023-01-17T05:06:20.652Z,98762.63
2023-01-17T05:08:47.624Z,98752.16
2023-01-17T05:11:14.876Z,98743.56
2023-01-17T05:13:42.124Z,98746.31
2023-01-17T05:16:09.158Z,98748.22
2023-01-17T05:18:36.296Z,98759.81
2023-01-17T05:21:04.425Z,98760.78
2023-01-17T05:23:32.448Z,98770.41
2023-01-17T05:25:59.774Z,98775.03
2023-01-17T05:28:26.974Z,98790.03
2023-01-17T05:30:53.999Z,98788.31
2023-01-17T05:33:21.091Z,98787.41
2023-01-17T05:35:48.062Z,98784.66
2023-01-17T05:38:15.035Z,98780.41
2023-01-17T05:40:42.012Z,98760.41
2023-01-17T05:43:09.113Z,98757.00
2023-01-17T05:45:36.382Z,98745.72
2023-01-17T05:48:04.351Z,98744.88
2023-01-17T05:50:35.641Z,98755.44
2023-01-17T05:53:15.402Z,98749.31
2023-01-17T05:55:42.955Z,98737.03
2023-01-17T05:58:20.978Z,98747.91
2023-01-17T06:00:52.569Z,98734.88
2023-01-17T06:03:22.223Z,98713.94
2023-01-17T06:05:50.229Z,98720.19
2023-01-17T06:08:17.325Z,98717.41
2023-01-17T06:10:44.195Z,98720.72
2023-01-17T06:13:15.333Z,98709.09
2023-01-17T06:15:42.679Z,98707.44
2023-01-17T06:18:13.095Z,98710.06
2023-01-17T06:20:41.904Z,98722.31
2023-01-17T06:23:12.662Z,98732.56
2023-01-17T06:25:45.206Z,98733.34
2023-01-17T06:28:18.973Z,98756.09
2023-01-17T06:30:46.785Z,98764.75
2023-01-17T06:33:14.527Z,98760.09
2023-01-17T06:35:53.328Z,98750.22
2023-01-17T06:38:21.120Z,98745.66
2023-01-17T06:40:49.200Z,98734.03
2023-01-17T06:43:19.118Z,98744.41
2023-01-17T06:45:46.221Z,98745.25
2023-01-17T06:48:13.391Z,98735.72
2023-01-17T06:50:40.385Z,98741.00
2023-01-17T06:53:07.975Z,98733.00
2023-01-17T06:55:37.265Z,98726.69
2023-01-17T06:58:04.183Z,98718.75
2023-01-17T07:00:35.003Z,98717.03
2023-01-17T07:03:02.859Z,98717.22
2023-01-17T07:05:29.833Z,98717.16
2023-01-17T07:07:57.820Z,98712.50
2023-01-17T07:10:24.741Z,98715.22
2023-01-17T07:12:51.687Z,98705.34
2023-01-17T07:15:18.689Z,98685.50
2023-01-17T07:17:45.712Z,98678.53
2023-01-17T07:20:13.920Z,98686.03
2023-01-17T07:22:45.487Z,98685.06
2023-01-17T07:25:12.929Z,98684.16
2023-01-17T07:27:39.956Z,98679.59
2023-01-17T07:30:07.731Z,98680.34
2023-01-17T07:32:35.368Z,98678.34
2023-01-17T07:35:02.324Z,98680.69
2023-01-17T07:37:29.345Z,98681.22
2023-01-17T07:39:56.379Z,98675.94
2023-01-17T07:42:24.520Z,98671.41
2023-01-17T07:44:51.519Z,98681.03
2023-01-17T07:47:18.542Z,98672.06
2023-01-17T07:49:45.609Z,98668.25
2023-01-17T07:52:12.615Z,98670.91
2023-01-17T07:54:39.670Z,98664.56
2023-01-17T07:57:12.452Z,98660.00
2023-01-17T07:59:40.387Z,98661.59
2023-01-17T08:02:17.721Z,98653.47
2023-01-17T08:04:45.335Z,98660.34
2023-01-17T08:07:14.008Z,98650.59
2023-01-17T08:09:42.314Z,98639.91
2023-01-17T08:12:10.329Z,98641.72
2023-01-17T08:14:37.291Z,98644.28
2023-01-17T08:17:11.489Z,98641.50
2023-01-17T08:19:38.948Z,98642.34
2023-01-17T08:22:06.342Z,98631.69
2023-01-17T08:24:33.899Z,98635.19
2023-01-17T08:27:00.855Z,98635.19
2023-01-17T08:29:28.180Z,98643.03
2023-01-17T08:31:55.793Z,98641.31
2023-01-17T08:34:23.830Z,98642.16
2023-01-17T08:36:53.897Z,98646.50
2023-01-17T08:39:22.167Z,98651.78
2023-01-17T08:41:49.440Z,98657.09
2023-01-17T08:44:16.548Z,98659.59
2023-01-17T08:46:47.208Z,98660.38
2023-01-17T08:49:14.338Z,98655.28
2023-01-17T08:51:41.551Z,98652.63
2023-01-17T08:54:11.914Z,98642.91
2023-01-17T08:56:39.527Z,98635.94
2023-01-17T08:59:06.729Z,98641.09
2023-01-17T09:01:40.792Z,98631.34
2023-01-17T09:04:14.100Z,98635.09
2023-01-17T09:06:45.451Z,98641.84
2023-01-17T09:09:13.646Z,98634.00
2023-01-17T09:11:40.641Z,98640.03
2023-01-17T09:14:07.734Z,98645.13
2023-01-17T09:16:34.932Z,98651.25
2023-01-17T09:19:01.995Z,98649.56
2023-01-17T09:21:29.020Z,98655.72
2023-01-17T09:23:56.371Z,98660.03
2023-01-17T09:26:29.282Z,98669.78
2023-01-17T09:28:56.501Z,98655.72
2023-01-17T09:31:24.590Z,98660.16
2023-01-17T09:33:53.230Z,98661.09
2023-01-17T09:36:22.213Z,98660.16
2023-01-17T09:38:49.556Z,98654.75
2023-01-17T09:41:29.164Z,98664.41
2023-01-17T09:44:23.782Z,98675.06
2023-01-17T09:46:55.279Z,98672.41
2023-01-17T09:49:45.518Z,98664.28
2023-01-17T09:52:17.874Z,98666.94
2023-01-17T09:54:48.575Z,98666.31
2023-01-17T09:57:54.762Z,98662.38
2023-01-17T10:00:34.128Z,98658.56
2023-01-17T10:03:32.099Z,98659.19
2023-01-17T10:06:28.257Z,98640.88
2023-01-17T10:09:25.250Z,98647.97
2023-01-17T10:12:16.351Z,98646.72
2023-01-17T10:15:39.968Z,98636.13
2023-01-17T10:18:30.421Z,98635.81
2023-01-17T10:21:23.985Z,98632.44
2023-01-17T10:24:22.290Z,98623.13
2023-01-17T10:26:56.340Z,98606.22
2023-01-17T10:29:30.160Z,98611.59
2023-01-17T10:32:02.750Z,98611.78
2023-01-17T10:34:51.604Z,98617.41
2023-01-17T10:37:31.647Z,98625.56
2023-01-17T10:40:24.936Z,98621.31
2023-01-17T10:43:15.033Z,98627.78
2023-01-17T10:45:53.870Z,98628.84
2023-01-17T10:48:37.466Z,98620.06
2023-01-17T10:51:26.719Z,98629.34
2023-01-17T10:54:19.136Z,98631.91
2023-01-17T10:56:46.319Z,98633.09
2023-01-17T10:59:25.052Z,98625.16
2023-01-17T11:01:52.293Z,98635.53
2023-01-17T11:04:38.129Z,98631.28
2023-01-17T11:07:14.192Z,98638.59
2023-01-17T11:09:53.774Z,98628.22
2023-01-17T11:12:31.028Z,98621.22
2023-01-17T11:15:02.667Z,98620.06
2023-01-17T11:17:31.467Z,98620.69
2023-01-17T11:20:37.040Z,98614.66
2023-01-17T11:23:14.646Z,98617.09
2023-01-17T11:25:50.377Z,98608.94
2023-01-17T11:28:26.455Z,98605.13
2023-01-17T11:30:57.475Z,98608.81
2023-01-17T11:33:45.928Z,98600.56
2023-01-17T11:36:22.988Z,98599.53
2023-01-17T11:39:22.037Z,98604.91
2023-01-17T11:41:49.187Z,98585.00
2023-01-17T11:44:27.705Z,98585.31
2023-01-17T11:47:13.107Z,98564.78
2023-01-17T11:49:50.097Z,98562.78
2023-01-17T11:52:32.953Z,98563.75
2023-01-17T11:55:00.203Z,98566.38
2023-01-17T11:57:30.219Z,98566.03
2023-01-17T12:00:24.436Z,98548.69
2023-01-17T12:03:11.348Z,98544.88
2023-01-17T12:05:44.740Z,98541.16
2023-01-17T12:08:32.867Z,98539.69
2023-01-17T12:11:05.997Z,98529.75
2023-01-17T12:14:10.303Z,98529.22
2023-01-17T12:17:43.794Z,98515.97
2023-01-17T12:20:38.511Z,98511.00
2023-01-17T12:23:33.789Z,98508.56
2023-01-17T12:26:30.394Z,98505.38
2023-01-17T12:29:31.180Z,98491.19
2023-01-17T12:32:48.179Z,98482.19
2023-01-17T12:35:24.549Z,98491.84
2023-01-17T12:38:05.299Z,98501.13
2023-01-17T12:40:54.136Z,98494.16
2023-01-17T12:43:38.099Z,98492.97
2023-01-17T12:46:21.353Z,98480.44
2023-01-17T12:48:55.558Z,98479.34
2023-01-17T12:51:29.389Z,98481.25
2023-01-17T12:54:50.595Z,98463.00
2023-01-17T12:57:25.749Z,98451.94
2023-01-17T13:00:19.677Z,98472.03
2023-01-17T13:03:12.417Z,98468.44
2023-01-17T13:05:46.770Z,98468.66
2023-01-17T13:08:22.389Z,98460.19
2023-01-17T13:11:23.334Z,98453.22
2023-01-17T13:13:52.328Z,98441.56
2023-01-17T13:16:36.451Z,98450.34
2023-01-17T13:19:33.682Z,98423.88
2023-01-17T13:22:06.572Z,98399.25
2023-01-17T13:24:58.680Z,98393.81
2023-01-17T13:27:53.295Z,98391.91
2023-01-17T13:30:57.746Z,98390.94
2023-01-17T13:33:35.554Z,98387.88
2023-01-17T13:36:40.214Z,98374.97
2023-01-17T13:39:52.046Z,98385.22
2023-01-17T13:42:56.059Z,98369.13
2023-01-17T13:45:31.967Z,98373.81
2023-01-17T13:48:17.192Z,98383.94
2023-01-17T13:50:53.076Z,98381.53
2023-01-17T13:53:29.155Z,98363.84
2023-01-17T13:56:31.389Z,98371.16
2023-01-17T13:59:04.979Z,98372.31
2023-01-17T14:01:32.382Z,98363.22
2023-01-17T14:04:06.308Z,98362.25
2023-01-17T14:06:35.557Z,98362.88
2023-01-17T14:09:13.420Z,98366.25
2023-01-17T14:11:52.926Z,98374.19
2023-01-17T14:14:44.451Z,98367.84
2023-01-17T14:17:15.482Z,98352.66
2023-01-17T14:19:48.609Z,98353.41
2023-01-17T14:22:18.567Z,98361.22
2023-01-17T14:25:12.145Z,98365.56
2023-01-17T14:27:42.151Z,98360.97
2023-01-17T14:30:26.392Z,98351.25
2023-01-17T14:32:59.145Z,98368.81
2023-01-17T14:35:33.121Z,98354.63
2023-01-17T14:38:05.617Z,98366.03
2023-01-17T14:40:38.201Z,98365.09
2023-01-17T14:43:12.527Z,98378.22
2023-01-17T14:45:40.331Z,98370.28
2023-01-17T14:48:19.043Z,98374.50
2023-01-17T14:50:49.326Z,98367.41
2023-01-17T14:53:20.997Z,98385.94
2023-01-17T14:55:47.914Z,98388.47
2023-01-17T14:58:36.395Z,98384.84
2023-01-17T15:01:20.067Z,98405.31
2023-01-17T15:03:54.096Z,98392.91
2023-01-17T15:06:33.897Z,98394.72
2023-01-17T15:09:01.181Z,98419.50
2023-01-17T15:11:33.599Z,98429.13
2023-01-17T15:14:05.871Z,98429.97
2023-01-17T15:16:37.192Z,98436.47
2023-01-17T15:19:13.315Z,98414.53
2023-01-17T15:21:43.166Z,98398.78
2023-01-17T15:24:20.625Z,98417.44
2023-01-17T15:26:48.343Z,98442.22
2023-01-17T15:29:25.528Z,98443.19
2023-01-17T15:32:02.202Z,98448.19
2023-01-17T15:34:33.185Z,98434.09
2023-01-17T15:37:29.723Z,98434.56
2023-01-17T15:40:24.116Z,98453.22
2023-01-17T15:42:57.213Z,98448.09
2023-01-17T15:45:29.948Z,98446.97
2023-01-17T15:47:59.271Z,98447.09
2023-01-17T15:50:38.633Z,98447.94
2023-01-17T15:53:31.642Z,98439.38
2023-01-17T15:55:59.784Z,98429.50
2023-01-17T15:58:30.387Z,98425.75
2023-01-17T16:00:57.845Z,98422.78
2023-01-17T16:03:30.659Z,98434.34
2023-01-17T16:06:00.744Z,98440.38
2023-01-17T16:08:38.768Z,98451.06
2023-01-17T16:11:08.154Z,98449.38
2023-01-17T16:13:39.292Z,98447.69
2023-01-17T16:16:22.549Z,98438.41
2023-01-17T16:18:59.070Z,98446.53
2023-01-17T16:21:29.816Z,98451.22
2023-01-17T16:23:57.094Z,98453.03
2023-01-17T16:26:24.436Z,98437.25
2023-01-17T16:28:51.924Z,98441.69
2023-01-17T16:31:19.271Z,98439.47
2023-01-17T16:33:50.715Z,98426.47
2023-01-17T16:36:22.939Z,98428.84
2023-01-17T16:38:52.440Z,98431.34
2023-01-17T16:41:21.075Z,98436.44
2023-01-17T16:43:59.342Z,98432.09
2023-01-17T16:46:27.685Z,98435.47
2023-01-17T16:48:55.703Z,98437.38
2023-01-17T16:51:22.731Z,98425.22
2023-01-17T16:53:50.057Z,98425.78
2023-01-17T16:56:19.013Z,98431.34
2023-01-17T16:58:46.671Z,98430.84
2023-01-17T17:01:17.923Z,98434.34
2023-01-17T17:03:46.449Z,98443.13
2023-01-17T17:06:15.099Z,98442.16
2023-01-17T17:08:43.395Z,98440.34
2023-01-17T17:11:23.441Z,98449.88
2023-01-17T17:13:51.626Z,98456.13
2023-01-17T17:16:32.877Z,98462.13
2023-01-17T17:19:06.698Z,98463.09
2023-01-17T17:21:37.445Z,98465.31
2023-01-17T17:24:04.946Z,98466.34
2023-01-17T17:26:36.669Z,98470.06
2023-01-17T17:29:07.134Z,98460.97
2023-01-17T17:31:34.138Z,98467.09
2023-01-17T17:34:02.644Z,98470.59
2023-01-17T17:36:30.066Z,98467.19
2023-01-17T17:38:58.605Z,98469.13
2023-01-17T17:41:28.756Z,98463.22
2023-01-17T17:43:56.199Z,98462.59
2023-01-17T17:46:26.184Z,98459.47
2023-01-17T17:48:53.739Z,98463.72
2023-01-17T17:51:23.608Z,98456.00
2023-01-17T17:53:52.964Z,98458.41
2023-01-17T17:56:20.936Z,98461.69
2023-01-17T17:58:50.699Z,98458.00
2023-01-17T18:01:17.849Z,98467.59
2023-01-17T18:03:46.084Z,98463.81
2023-01-17T18:06:13.339Z,98472.38
2023-01-17T18:08:40.191Z,98484.41
2023-01-17T18:11:14.015Z,98488.53
2023-01-17T18:13:42.887Z,98499.00
2023-01-17T18:16:14.508Z,98510.22
2023-01-17T18:18:45.925Z,98508.28
2023-01-17T18:21:26.043Z,98501.94
2023-01-17T18:23:58.692Z,98509.03
2023-01-17T18:26:29.967Z,98502.06
2023-01-17T18:28:59.093Z,98496.88
2023-01-17T18:31:28.248Z,98500.34
2023-01-17T18:33:58.107Z,98497.72
2023-01-17T18:36:28.701Z,98501.09
2023-01-17T18:38:56.330Z,98501.09
2023-01-17T18:41:29.397Z,98505.44
2023-01-17T18:43:57.058Z,98496.56
2023-01-17T18:46:26.195Z,98495.59
2023-01-17T18:48:57.167Z,98491.06
2023-01-17T18:51:25.642Z,98493.78
2023-01-17T18:53:53.057Z,98492.94
2023-01-17T18:56:22.724Z,98490.31
2023-01-17T18:58:50.898Z,98479.72
2023-01-17T19:01:25.726Z,98477.91
2023-01-17T19:03:57.892Z,98486.81
2023-01-17T19:06:47.383Z,98491.97
2023-01-17T19:09:16.519Z,98493.56
2023-01-17T19:11:45.111Z,98492.72
2023-01-17T19:14:12.922Z,98503.41
2023-01-17T19:16:41.928Z,98512.31
2023-01-17T19:19:13.687Z,98514.97
2023-01-17T19:21:40.887Z,98506.19
2023-01-17T19:24:10.558Z,98510.50
2023-01-17T19:26:37.548Z,98511.34
2023-01-17T19:29:05.285Z,98514.13
2023-01-17T19:31:36.859Z,98505.97
2023-01-17T19:34:03.935Z,98509.03
2023-01-17T19:36:37.594Z,98510.84
2023-01-17T19:39:09.257Z,98505.66
2023-01-17T19:41:42.660Z,98511.81
2023-01-17T19:44:12.247Z,98503.13
2023-01-17T19:46:39.907Z,98505.78
2023-01-17T19:49:08.840Z,98505.16
2023-01-17T19:51:36.237Z,98508.75
2023-01-17T19:54:04.281Z,98502.72
2023-01-17T19:56:31.584Z,98499.97
2023-01-17T19:59:01.679Z,98511.50
2023-01-17T20:01:32.637Z,98501.78
2023-01-17T20:04:02.844Z,98505.91
2023-01-17T20:06:34.695Z,98499.25
2023-01-17T20:09:03.367Z,98498.94
2023-01-17T20:11:30.543Z,98495.34
2023-01-17T20:13:59.785Z,98495.13
2023-01-17T20:16:30.238Z,98492.16
2023-01-17T20:18:59.443Z,98493.00
2023-01-17T20:21:29.231Z,98487.84
2023-01-17T20:23:58.580Z,98476.28
2023-01-17T20:26:35.667Z,98471.63
2023-01-17T20:29:11.322Z,98472.47
2023-01-17T20:31:40.583Z,98468.00
2023-01-17T20:34:10.820Z,98469.81
2023-01-17T20:36:39.876Z,98464.44
2023-01-17T20:39:08.592Z,98470.66
2023-01-17T20:41:39.287Z,98471.53
2023-01-17T20:44:10.456Z,98477.75
2023-01-17T20:46:41.102Z,98486.53
2023-01-17T20:49:17.082Z,98482.00
2023-01-17T20:51:46.215Z,98484.63
2023-01-17T20:54:16.452Z,98485.25
2023-01-17T20:56:47.154Z,98486.94
2023-01-17T20:59:17.849Z,98485.16
2023-01-17T21:01:46.717Z,98482.53
2023-01-17T21:04:14.915Z,98484.94
2023-01-17T21:06:43.570Z,98474.47
2023-01-17T21:09:15.326Z,98481.34
2023-01-17T21:11:42.437Z,98479.75
2023-01-17T21:14:09.689Z,98491.16
2023-01-17T21:16:36.658Z,98486.72
2023-01-17T21:19:04.648Z,98489.28
2023-01-17T21:21:32.519Z,98492.88
2023-01-17T21:23:59.872Z,98490.13
2023-01-17T21:26:28.448Z,98487.47
2023-01-17T21:28:56.083Z,98488.44
2023-01-17T21:31:28.729Z,98487.47
2023-01-17T21:33:59.613Z,98493.59
2023-01-17T21:36:33.485Z,98489.16
2023-01-17T21:39:04.805Z,98489.38
2023-01-17T21:41:35.802Z,98476.34
2023-01-17T21:44:08.012Z,98472.78
2023-01-17T21:46:39.864Z,98474.47
2023-01-17T21:49:10.712Z,98472.66
2023-01-17T21:52:03.270Z,98483.22
2023-01-17T21:54:55.752Z,98486.84
2023-01-17T21:57:41.510Z,98485.88
2023-01-17T22:00:15.655Z,98488.53
2023-01-17T22:02:47.571Z,98493.81
2023-01-17T22:05:16.883Z,98481.44
2023-01-17T22:08:04.964Z,98480.59
2023-01-17T22:10:32.563Z,98472.66
2023-01-17T22:12:59.546Z,98471.94
2023-01-17T22:15:26.644Z,98468.53
2023-01-17T22:17:53.802Z,98472.88
2023-01-17T22:20:21.511Z,98477.44
2023-01-17T22:22:48.489Z,98475.63
2023-01-17T22:25:15.642Z,98491.59
2023-01-17T22:27:42.739Z,98490.75
2023-01-17T22:30:13.040Z,98495.34
2023-01-17T22:32:40.224Z,98506.00
2023-01-17T22:35:08.320Z,98507.69
2023-01-17T22:37:35.855Z,98508.56
2023-01-17T22:40:04.998Z,98511.28
2023-01-17T22:42:35.127Z,98505.03
2023-01-17T22:45:02.281Z,98499.66
2023-01-17T22:47:30.131Z,98503.28
2023-01-17T22:49:57.465Z,98510.25
2023-01-17T22:52:24.700Z,98510.34
2023-01-17T22:54:51.942Z,98503.34
2023-01-17T22:57:19.047Z,98507.69
2023-01-17T22:59:45.986Z,98501.47
2023-01-17T23:02:14.103Z,98504.19
2023-01-17T23:04:42.976Z,98491.94
2023-01-17T23:07:10.588Z,98486.66
2023-01-17T23:09:37.617Z,98476.91
2023-01-17T23:12:04.795Z,98469.19
2023-01-17T23:14:53.213Z,98472.91
2023-01-17T23:17:41.786Z,98474.91
2023-01-17T23:20:11.889Z,98472.47
2023-01-17T23:22:38.960Z,98469.97
2023-01-17T23:25:12.666Z,98463.72
2023-01-17T23:28:03.061Z,98453.25
2023-01-17T23:30:37.496Z,98455.06
2023-01-17T23:33:16.252Z,98446.16
2023-01-17T23:35:46.148Z,98443.53
2023-01-17T23:38:29.649Z,98454.94
2023-01-17T23:41:33.271Z,98459.47
2023-01-17T23:44:00.308Z,98460.44
2023-01-17T23:46:30.122Z,98460.56
2023-01-17T23:48:57.291Z,98457.16
2023-01-17T23:51:24.183Z,98464.13
2023-01-17T23:53:57.414Z,98474.72
2023-01-17T23:56:24.966Z,98467.63
2023-01-17T23:58:52.292Z,98472.91
